Time;durP1;ratioP1;P1;durP2;ratioP2;P2;SDS_P1;SDS_P2;PMS_P1;PMS_P2;Temp;Humidity;BMP_temperature;BMP_pressure;BME280_temperature;BME280_humidity;BME280_pressure;Samples;Min_cycle;Max_cycle;Signal;HPM_P1;HPM_P2
2023/07/30 00:01:07;;;;;;;16.52;5.25;;;16.30;99.90;;;;;;5065532;28;20035;-64
2023/07/30 00:03:32;;;;;;;23.42;5.43;;;16.30;99.90;;;;;;5063638;28;20407;-64
2023/07/30 00:05:58;;;;;;;22.45;5.95;;;16.30;99.90;;;;;;5047857;28;20032;-64
2023/07/30 00:08:24;;;;;;;18.60;5.80;;;16.30;99.90;;;;;;5065094;28;20060;-64
2023/07/30 00:10:49;;;;;;;23.77;5.97;;;16.30;99.90;;;;;;5046372;28;20466;-63
2023/07/30 00:13:15;;;;;;;20.90;5.80;;;16.30;99.90;;;;;;5032027;28;20404;-63
2023/07/30 00:15:41;;;;;;;20.33;5.93;;;16.30;99.90;;;;;;5047567;28;20076;-65
2023/07/30 00:18:06;;;;;;;18.73;5.90;;;16.30;99.90;;;;;;5047031;28;20032;-64
2023/07/30 00:20:34;;;;;;;16.85;5.53;;;16.20;99.90;;;;;;5066304;28;20037;-63
2023/07/30 00:23:00;;;;;;;14.95;6.20;;;16.20;99.90;;;;;;5065464;28;20044;-64
2023/07/30 00:25:26;;;;;;;23.10;6.38;;;16.20;99.90;;;;;;5047376;28;20835;-63
2023/07/30 00:27:51;;;;;;;16.58;5.47;;;16.10;99.90;;;;;;5064670;28;20044;-64
2023/07/30 00:30:17;;;;;;;14.90;5.25;;;16.10;99.90;;;;;;5047722;28;20028;-64
2023/07/30 00:32:43;;;;;;;14.60;5.53;;;16.00;99.90;;;;;;5046359;28;20083;-64
2023/07/30 00:35:09;;;;;;;15.73;5.63;;;16.00;99.90;;;;;;5065654;28;20458;-66
2023/07/30 00:37:35;;;;;;;15.30;6.28;;;15.90;99.90;;;;;;5046506;28;20048;-64
2023/07/30 00:40:02;;;;;;;14.65;5.45;;;15.90;99.90;;;;;;5047318;28;20518;-64
2023/07/30 00:42:28;;;;;;;15.07;6.43;;;15.80;99.90;;;;;;5030610;28;20529;-64
2023/07/30 00:44:54;;;;;;;18.38;5.70;;;15.80;99.90;;;;;;5065728;28;20127;-63
2023/07/30 00:47:21;;;;;;;22.88;6.93;;;15.80;99.90;;;;;;5064775;28;20128;-65
2023/07/30 00:49:47;;;;;;;19.13;6.45;;;15.80;99.90;;;;;;5047598;28;20365;-64
2023/07/30 00:52:13;;;;;;;19.38;5.82;;;15.80;99.90;;;;;;5064952;28;20492;-64
2023/07/30 00:54:39;;;;;;;16.08;5.82;;;15.80;99.90;;;;;;5065561;28;20052;-64
2023/07/30 00:57:06;;;;;;;18.52;5.78;;;15.70;99.90;;;;;;5047580;28;20040;-64
2023/07/30 00:59:32;;;;;;;20.50;5.70;;;15.70;99.90;;;;;;5065592;28;20124;-65
2023/07/30 01:01:59;;;;;;;17.48;5.70;;;15.70;99.90;;;;;;5047027;28;20045;-64
2023/07/30 01:04:25;;;;;;;21.60;6.28;;;15.70;99.90;;;;;;5047517;28;20115;-63
2023/07/30 01:06:51;;;;;;;17.50;5.50;;;15.70;99.90;;;;;;5064520;28;20068;-65
2023/07/30 01:09:17;;;;;;;15.63;6.22;;;15.60;99.90;;;;;;5047266;28;20367;-64
2023/07/30 01:11:44;;;;;;;24.80;6.00;;;15.60;99.90;;;;;;5046119;28;20551;-64
2023/07/30 01:14:10;;;;;;;25.35;6.20;;;15.60;99.90;;;;;;5065006;28;20486;-65
2023/07/30 01:16:36;;;;;;;27.70;7.32;;;15.60;99.90;;;;;;5030491;28;20051;-66
2023/07/30 01:19:04;;;;;;;15.73;5.47;;;15.50;99.90;;;;;;5047794;28;20045;-65
2023/07/30 01:21:35;;;;;;;21.02;6.15;;;15.60;99.90;;;;;;5064049;28;20048;-64
2023/07/30 01:24:00;;;;;;;21.52;6.63;;;15.60;99.90;;;;;;5043753;28;20424;-65
2023/07/30 01:26:39;;;;;;;19.90;5.80;;;15.60;99.90;;;;;;5025596;28;20065;-67
2023/07/30 01:29:16;;;;;;;17.05;6.18;;;15.60;99.90;;;;;;5033772;28;20028;-64
2023/07/30 01:31:47;;;;;;;23.70;6.30;;;15.60;99.90;;;;;;5046254;28;20164;-65
2023/07/30 01:34:13;;;;;;;21.85;6.45;;;15.60;99.90;;;;;;5045579;28;21374;-65
2023/07/30 01:36:40;;;;;;;31.13;7.20;;;15.60;99.90;;;;;;5027398;28;20063;-64
2023/07/30 01:39:07;;;;;;;25.42;6.68;;;15.60;99.90;;;;;;5044903;28;20103;-64
2023/07/30 01:41:32;;;;;;;19.02;6.28;;;15.60;99.90;;;;;;5043874;28;20098;-66
2023/07/30 01:43:58;;;;;;;20.20;6.82;;;15.60;99.90;;;;;;5030089;28;20028;-64
2023/07/30 01:46:23;;;;;;;25.42;6.82;;;15.60;99.90;;;;;;5046556;28;20040;-64
2023/07/30 01:48:49;;;;;;;20.38;6.28;;;15.60;99.90;;;;;;5064601;28;20474;-65
2023/07/30 01:51:14;;;;;;;21.42;6.50;;;15.60;99.90;;;;;;5046691;28;20309;-64
2023/07/30 01:53:40;;;;;;;20.83;6.80;;;15.60;99.90;;;;;;5064156;28;20036;-65
2023/07/30 01:56:06;;;;;;;27.92;7.20;;;15.60;99.90;;;;;;5045504;28;20156;-62
2023/07/30 01:58:31;;;;;;;25.83;6.80;;;15.60;99.90;;;;;;5046730;28;20052;-65
2023/07/30 02:00:57;;;;;;;20.98;6.43;;;15.60;99.90;;;;;;5046757;28;20040;-64
2023/07/30 02:03:23;;;;;;;25.33;7.75;;;15.60;99.90;;;;;;5045993;28;20048;-63
2023/07/30 02:05:48;;;;;;;29.40;6.47;;;15.60;99.90;;;;;;5053477;28;20045;-65
2023/07/30 02:08:15;;;;;;;22.58;6.03;;;15.60;99.90;;;;;;5058132;28;20049;-64
2023/07/30 02:10:41;;;;;;;26.85;6.63;;;15.60;99.90;;;;;;5044648;28;20079;-64
2023/07/30 02:13:07;;;;;;;22.88;7.35;;;15.60;99.90;;;;;;5046126;28;20068;-65
2023/07/30 02:15:33;;;;;;;22.70;6.22;;;15.60;99.90;;;;;;5046400;28;20036;-68
2023/07/30 02:17:58;;;;;;;28.73;7.05;;;15.60;99.90;;;;;;5028358;28;20560;-65
2023/07/30 02:20:24;;;;;;;22.02;6.07;;;15.60;99.90;;;;;;5064274;28;20040;-67
2023/07/30 02:22:50;;;;;;;27.38;6.90;;;15.60;99.90;;;;;;5063748;28;20032;-64
2023/07/30 02:25:15;;;;;;;33.45;6.88;;;15.60;99.90;;;;;;5045424;28;20127;-64
2023/07/30 02:27:41;;;;;;;24.33;6.97;;;15.60;99.90;;;;;;5048071;28;20040;-67
2023/07/30 02:30:07;;;;;;;21.67;6.65;;;15.50;99.90;;;;;;5044125;28;20618;-64
2023/07/30 02:32:32;;;;;;;30.10;7.43;;;15.50;99.90;;;;;;5044555;28;20135;-65
2023/07/30 02:34:58;;;;;;;22.65;6.22;;;15.50;99.90;;;;;;5045343;28;20044;-64
2023/07/30 02:37:23;;;;;;;25.85;6.70;;;15.50;99.90;;;;;;5045392;28;20039;-64
2023/07/30 02:39:49;;;;;;;22.45;6.68;;;15.50;99.90;;;;;;5028936;28;20044;-65
2023/07/30 02:42:15;;;;;;;27.00;6.55;;;15.40;99.90;;;;;;5044960;28;20040;-63
2023/07/30 02:44:40;;;;;;;26.48;6.25;;;15.40;99.90;;;;;;5063299;28;20445;-66
2023/07/30 02:47:06;;;;;;;25.73;6.32;;;15.40;99.90;;;;;;5063475;28;20050;-67
2023/07/30 02:49:31;;;;;;;24.08;6.55;;;15.30;99.90;;;;;;5045532;28;20040;-65
2023/07/30 02:51:57;;;;;;;26.38;7.10;;;15.30;99.90;;;;;;5028728;28;20072;-63
2023/07/30 02:54:22;;;;;;;25.08;7.28;;;15.30;99.90;;;;;;5045890;28;20056;-65
2023/07/30 02:56:48;;;;;;;28.33;7.22;;;15.20;99.90;;;;;;5062395;28;20110;-66
2023/07/30 02:59:14;;;;;;;20.17;6.68;;;15.20;99.90;;;;;;5059324;28;20086;-64
2023/07/30 03:01:39;;;;;;;23.50;6.93;;;15.10;99.90;;;;;;5027413;28;20420;-66
2023/07/30 03:04:05;;;;;;;24.65;6.38;;;15.10;99.90;;;;;;5043797;28;20060;-65
2023/07/30 03:06:31;;;;;;;26.48;6.65;;;15.10;99.90;;;;;;5030222;28;20048;-64
2023/07/30 03:08:57;;;;;;;24.00;6.10;;;15.10;99.90;;;;;;5010121;28;20136;-65
2023/07/30 03:11:23;;;;;;;21.23;6.78;;;15.10;99.90;;;;;;5032248;28;20119;-66
2023/07/30 03:13:48;;;;;;;20.70;6.70;;;15.10;99.90;;;;;;5029740;28;20123;-66
2023/07/30 03:16:14;;;;;;;24.17;6.22;;;15.10;99.90;;;;;;5045400;28;20638;-66
2023/07/30 03:18:39;;;;;;;22.63;5.72;;;15.10;99.90;;;;;;5045096;28;20519;-65
2023/07/30 03:21:05;;;;;;;18.80;6.22;;;15.00;99.90;;;;;;5045221;28;20814;-65
2023/07/30 03:23:31;;;;;;;26.60;6.43;;;15.00;99.90;;;;;;5044867;28;20048;-64
2023/07/30 03:25:57;;;;;;;22.80;5.97;;;15.00;99.90;;;;;;5044534;28;20052;-67
2023/07/30 03:28:23;;;;;;;18.17;5.60;;;15.10;99.90;;;;;;5045339;28;20484;-64
2023/07/30 03:30:49;;;;;;;21.20;5.90;;;15.00;99.90;;;;;;5045690;28;20072;-63
2023/07/30 03:33:14;;;;;;;23.33;6.18;;;15.10;99.90;;;;;;5025400;28;20040;-67
2023/07/30 03:35:40;;;;;;;22.85;5.75;;;15.00;99.90;;;;;;5025699;28;20435;-64
2023/07/30 03:38:06;;;;;;;24.42;5.93;;;15.00;99.90;;;;;;5057185;28;20193;-66
2023/07/30 03:40:31;;;;;;;27.35;6.20;;;15.10;99.90;;;;;;5044627;28;20072;-64
2023/07/30 03:42:57;;;;;;;21.90;5.97;;;15.10;99.90;;;;;;5062620;28;20131;-64
2023/07/30 03:45:22;;;;;;;22.17;5.80;;;15.00;99.90;;;;;;5046372;28;20032;-68
2023/07/30 03:47:48;;;;;;;23.35;5.82;;;15.10;99.90;;;;;;5049005;28;20075;-65
2023/07/30 03:50:14;;;;;;;23.45;6.07;;;15.10;99.90;;;;;;5051306;28;20265;-64
2023/07/30 03:52:39;;;;;;;23.85;5.63;;;15.00;99.90;;;;;;5045449;28;20798;-68
2023/07/30 03:55:05;;;;;;;24.10;6.45;;;15.10;99.90;;;;;;5046630;28;20186;-65
2023/07/30 03:57:31;;;;;;;21.48;5.95;;;15.10;99.90;;;;;;5028120;28;20496;-65
2023/07/30 03:59:56;;;;;;;18.30;5.75;;;15.10;99.90;;;;;;5029351;28;20575;-65
2023/07/30 04:02:22;;;;;;;24.13;5.45;;;15.10;99.90;;;;;;5034684;28;20109;-65
2023/07/30 04:04:49;;;;;;;29.60;6.07;;;15.10;99.90;;;;;;5063801;28;20044;-63
2023/07/30 04:07:15;;;;;;;28.27;6.05;;;15.10;99.90;;;;;;5035321;28;20033;-66
2023/07/30 04:09:41;;;;;;;18.60;4.80;;;15.10;99.90;;;;;;5048087;28;20049;-64
2023/07/30 04:12:07;;;;;;;21.60;5.25;;;15.10;99.90;;;;;;5046832;28;20041;-64
2023/07/30 04:14:33;;;;;;;24.55;5.55;;;15.10;99.90;;;;;;5048883;28;20041;-67
2023/07/30 04:16:58;;;;;;;24.25;6.10;;;15.10;99.90;;;;;;5047612;28;20028;-65
2023/07/30 04:19:24;;;;;;;23.38;6.32;;;15.10;99.90;;;;;;5048539;28;20079;-65
2023/07/30 04:21:49;;;;;;;23.58;5.60;;;15.10;99.90;;;;;;5047172;28;20464;-65
2023/07/30 04:24:15;;;;;;;19.52;5.13;;;15.10;99.90;;;;;;5048433;28;20047;-64
2023/07/30 04:26:41;;;;;;;19.63;4.80;;;15.10;99.90;;;;;;5046518;28;20458;-65
2023/07/30 04:29:06;;;;;;;25.33;5.50;;;15.10;99.90;;;;;;5048010;28;20035;-65
2023/07/30 04:31:32;;;;;;;14.48;4.88;;;15.10;99.90;;;;;;5048652;28;20174;-65
2023/07/30 04:33:58;;;;;;;26.27;5.47;;;15.00;99.90;;;;;;5047809;28;20316;-65
2023/07/30 04:36:24;;;;;;;19.45;4.88;;;15.10;99.90;;;;;;5063784;28;20080;-65
2023/07/30 04:38:50;;;;;;;23.42;5.10;;;15.10;99.90;;;;;;5065416;28;20463;-67
2023/07/30 04:41:17;;;;;;;27.20;4.97;;;15.10;99.90;;;;;;5066335;28;20090;-66
2023/07/30 04:43:42;;;;;;;20.25;5.32;;;15.10;99.90;;;;;;5066561;28;20143;-66
2023/07/30 04:46:08;;;;;;;14.75;4.50;;;15.10;99.90;;;;;;5047226;28;20181;-65
2023/07/30 04:48:33;;;;;;;23.17;5.38;;;15.10;99.90;;;;;;5047697;28;20037;-67
2023/07/30 04:51:02;;;;;;;17.45;5.05;;;15.10;99.90;;;;;;5065583;28;20047;-68
2023/07/30 04:53:27;;;;;;;26.75;6.20;;;15.10;99.90;;;;;;5047141;28;20036;-66
2023/07/30 04:55:59;;;;;;;19.52;4.53;;;15.20;99.90;;;;;;5047168;28;20499;-64
2023/07/30 04:58:25;;;;;;;20.10;4.85;;;15.20;99.90;;;;;;5046229;28;20032;-66
2023/07/30 05:00:50;;;;;;;22.88;5.05;;;15.20;99.90;;;;;;5027651;28;20786;-65
2023/07/30 05:03:16;;;;;;;17.35;4.78;;;15.30;99.90;;;;;;5044535;28;20057;-65
2023/07/30 05:05:42;;;;;;;21.17;4.97;;;15.40;99.90;;;;;;5047322;28;20044;-65
2023/07/30 05:08:08;;;;;;;23.25;5.38;;;15.50;99.90;;;;;;5046938;28;20280;-65
2023/07/30 05:10:33;;;;;;;24.30;5.40;;;15.50;99.90;;;;;;5046641;28;20137;-65
2023/07/30 05:12:59;;;;;;;21.33;5.10;;;15.50;99.90;;;;;;5046932;28;20040;-65
2023/07/30 05:15:25;;;;;;;24.77;4.80;;;15.50;99.90;;;;;;5047111;28;20051;-65
2023/07/30 05:17:51;;;;;;;21.10;5.10;;;15.50;99.90;;;;;;5064400;28;20596;-66
2023/07/30 05:20:17;;;;;;;16.42;4.55;;;15.50;99.90;;;;;;5047318;28;20103;-65
2023/07/30 05:22:42;;;;;;;17.15;4.43;;;15.50;99.90;;;;;;5046880;28;20055;-65
2023/07/30 05:25:08;;;;;;;18.65;5.03;;;15.50;99.90;;;;;;5046470;28;20044;-66
2023/07/30 05:27:35;;;;;;;18.85;4.57;;;15.50;99.90;;;;;;5045733;28;20052;-66
2023/07/30 05:30:01;;;;;;;17.10;5.00;;;15.50;99.90;;;;;;5065557;28;20117;-65
2023/07/30 05:32:27;;;;;;;23.30;5.40;;;15.50;99.90;;;;;;5046443;28;20064;-66
2023/07/30 05:34:52;;;;;;;19.80;5.38;;;15.50;99.90;;;;;;5047035;28;20052;-63
2023/07/30 05:37:18;;;;;;;19.73;4.93;;;15.60;99.90;;;;;;5064052;28;20574;-64
2023/07/30 05:39:44;;;;;;;18.27;4.50;;;15.60;99.90;;;;;;5064691;28;20048;-64
2023/07/30 05:42:09;;;;;;;24.30;5.00;;;15.60;99.90;;;;;;5046741;28;20059;-66
2023/07/30 05:44:35;;;;;;;30.25;5.30;;;15.70;99.90;;;;;;5027887;28;20024;-64
2023/07/30 05:47:00;;;;;;;17.60;4.95;;;15.70;99.90;;;;;;5047188;28;20663;-64
2023/07/30 05:49:26;;;;;;;25.42;5.45;;;15.70;99.90;;;;;;5047070;28;20475;-67
2023/07/30 05:51:52;;;;;;;19.38;4.82;;;15.80;99.90;;;;;;5046314;28;20037;-63
2023/07/30 05:54:17;;;;;;;23.17;5.20;;;15.80;99.90;;;;;;5064753;28;20165;-65
2023/07/30 05:56:43;;;;;;;22.05;4.93;;;15.80;99.90;;;;;;5044767;28;20049;-65
2023/07/30 05:59:09;;;;;;;23.98;5.70;;;15.80;99.90;;;;;;5047094;28;20087;-67
2023/07/30 06:01:34;;;;;;;22.58;5.32;;;15.90;99.90;;;;;;5062953;28;20127;-66
2023/07/30 06:04:00;;;;;;;23.02;4.90;;;15.90;99.90;;;;;;5029668;28;20185;-64
2023/07/30 06:06:29;;;;;;;20.58;5.15;;;16.00;99.90;;;;;;5038272;28;20407;-66
2023/07/30 06:08:55;;;;;;;21.55;5.43;;;16.00;99.90;;;;;;5026218;28;20037;-68
2023/07/30 06:11:21;;;;;;;24.95;4.85;;;16.00;99.90;;;;;;5048358;28;20499;-64
2023/07/30 06:13:46;;;;;;;20.10;5.07;;;16.00;99.90;;;;;;5046634;28;20087;-64
2023/07/30 06:16:13;;;;;;;23.83;4.97;;;16.10;99.90;;;;;;5040775;28;20121;-66
2023/07/30 06:18:38;;;;;;;23.02;4.80;;;16.10;99.90;;;;;;5060312;28;20385;-66
2023/07/30 06:21:04;;;;;;;19.10;4.68;;;16.20;99.90;;;;;;5045942;28;20070;-66
2023/07/30 06:23:29;;;;;;;25.63;5.53;;;16.20;99.90;;;;;;5047912;28;20334;-65
2023/07/30 06:25:55;;;;;;;27.25;4.72;;;16.30;99.90;;;;;;5024563;28;20507;-65
2023/07/30 06:28:20;;;;;;;18.25;4.28;;;16.30;99.90;;;;;;5027633;28;20164;-66
2023/07/30 06:30:46;;;;;;;21.48;4.53;;;16.30;99.90;;;;;;5046457;28;20032;-65
2023/07/30 06:33:12;;;;;;;22.50;4.85;;;16.40;99.90;;;;;;5045923;28;20229;-65
2023/07/30 06:35:38;;;;;;;18.77;5.00;;;16.40;99.90;;;;;;5063888;28;20037;-65
2023/07/30 06:38:08;;;;;;;15.82;4.60;;;16.40;99.90;;;;;;5045348;28;20048;-66
2023/07/30 06:40:34;;;;;;;17.55;4.85;;;16.40;99.90;;;;;;5028653;28;20048;-65
2023/07/30 06:42:59;;;;;;;17.38;4.65;;;16.40;99.90;;;;;;5045733;28;20036;-64
2023/07/30 06:45:25;;;;;;;19.85;4.50;;;16.40;99.90;;;;;;5064325;28;20135;-66
2023/07/30 06:47:51;;;;;;;19.80;4.72;;;16.40;99.90;;;;;;5062947;28;20044;-63
2023/07/30 06:50:16;;;;;;;17.60;4.85;;;16.40;99.90;;;;;;5046155;28;20048;-65
2023/07/30 06:52:42;;;;;;;16.05;4.85;;;16.40;99.90;;;;;;5045883;28;20037;-63
2023/07/30 06:55:08;;;;;;;20.13;4.88;;;16.40;99.90;;;;;;5045479;28;20044;-63
2023/07/30 06:57:34;;;;;;;19.38;4.65;;;16.50;99.90;;;;;;5060784;28;20037;-63
2023/07/30 07:00:00;;;;;;;22.20;4.80;;;16.50;99.90;;;;;;5062405;28;20037;-61
2023/07/30 07:02:26;;;;;;;25.85;5.50;;;16.50;99.90;;;;;;5028242;28;20052;-63
2023/07/30 07:04:51;;;;;;;23.05;5.03;;;16.60;99.90;;;;;;5045443;28;20361;-66
2023/07/30 07:07:17;;;;;;;21.60;4.45;;;16.70;99.90;;;;;;5062964;28;20037;-63
2023/07/30 07:09:43;;;;;;;22.95;5.25;;;16.80;99.90;;;;;;5045490;28;20032;-62
2023/07/30 07:12:08;;;;;;;20.17;5.35;;;16.90;99.90;;;;;;5062702;28;20446;-63
2023/07/30 07:14:34;;;;;;;21.48;4.68;;;16.90;99.90;;;;;;5027990;28;20073;-65
2023/07/30 07:17:01;;;;;;;27.27;4.75;;;17.00;99.90;;;;;;5045831;28;20067;-65
2023/07/30 07:19:26;;;;;;;23.10;4.85;;;17.10;99.90;;;;;;5029773;28;20598;-69
2023/07/30 07:21:52;;;;;;;18.45;4.90;;;17.20;99.90;;;;;;5067068;28;20044;-65
2023/07/30 07:24:17;;;;;;;18.10;4.32;;;17.30;99.90;;;;;;5049433;28;20127;-66
2023/07/30 07:26:44;;;;;;;20.02;4.82;;;17.30;99.90;;;;;;5050918;28;20140;-63
2023/07/30 07:29:10;;;;;;;19.30;4.40;;;17.30;99.90;;;;;;5046528;28;20040;-67
2023/07/30 07:31:36;;;;;;;17.02;4.40;;;17.30;99.90;;;;;;5041553;28;20049;-71
2023/07/30 07:34:01;;;;;;;20.23;4.68;;;17.30;99.90;;;;;;5031293;28;20053;-65
2023/07/30 07:36:27;;;;;;;18.73;4.40;;;17.40;99.90;;;;;;5028861;28;20095;-66
2023/07/30 07:38:52;;;;;;;18.15;3.88;;;17.40;99.90;;;;;;5047628;28;20476;-65
2023/07/30 07:41:18;;;;;;;20.70;5.60;;;17.50;99.90;;;;;;5030918;28;20037;-64
2023/07/30 07:43:45;;;;;;;22.30;4.07;;;17.50;99.90;;;;;;5049478;28;20045;-64
2023/07/30 07:46:13;;;;;;;19.98;3.97;;;17.60;99.90;;;;;;5031749;28;20072;-63
2023/07/30 07:48:43;;;;;;;21.75;3.97;;;17.60;99.90;;;;;;5046073;28;20042;-64
2023/07/30 07:51:10;;;;;;;18.33;3.72;;;17.60;99.90;;;;;;5036471;28;20051;-63
2023/07/30 07:53:36;;;;;;;17.83;3.85;;;17.70;99.90;;;;;;5032120;28;20084;-63
2023/07/30 07:56:02;;;;;;;17.95;4.03;;;17.80;99.90;;;;;;5045592;28;20124;-65
2023/07/30 07:58:30;;;;;;;15.65;3.60;;;17.90;99.90;;;;;;5056975;28;20190;-64
2023/07/30 08:00:56;;;;;;;19.00;4.45;;;18.00;99.90;;;;;;5046492;28;20050;-65
2023/07/30 08:03:22;;;;;;;16.50;3.72;;;18.10;99.90;;;;;;5054751;28;20044;-65
2023/07/30 08:05:48;;;;;;;13.80;3.67;;;18.20;99.90;;;;;;5063218;28;20571;-64
2023/07/30 08:08:14;;;;;;;14.00;3.80;;;18.30;99.90;;;;;;5047657;28;20040;-63
2023/07/30 08:10:43;;;;;;;15.73;3.38;;;18.40;99.90;;;;;;5064658;28;20715;-65
2023/07/30 08:13:12;;;;;;;14.90;3.42;;;18.50;99.90;;;;;;5064976;28;20120;-64
2023/07/30 08:15:38;;;;;;;15.18;3.22;;;18.60;99.90;;;;;;5042274;28;20056;-65
2023/07/30 08:18:04;;;;;;;16.15;3.45;;;18.60;99.90;;;;;;5065425;28;20264;-65
2023/07/30 08:20:29;;;;;;;12.85;2.67;;;18.60;99.90;;;;;;5065930;28;20123;-71
2023/07/30 08:22:55;;;;;;;11.60;2.70;;;18.60;99.90;;;;;;5039810;28;20045;-65
2023/07/30 08:25:21;;;;;;;12.98;2.55;;;18.50;99.90;;;;;;5041255;28;20110;-65
2023/07/30 08:27:46;;;;;;;11.48;2.40;;;18.30;99.90;;;;;;5042619;28;20041;-64
2023/07/30 08:30:12;;;;;;;12.15;3.13;;;18.20;99.90;;;;;;5063551;28;20123;-64
2023/07/30 08:32:38;;;;;;;11.20;2.30;;;18.10;99.90;;;;;;5045281;28;20048;-66
2023/07/30 08:35:05;;;;;;;10.95;2.10;;;17.80;99.90;;;;;;5047636;28;20605;-63
2023/07/30 08:37:30;;;;;;;10.85;3.20;;;17.50;99.90;;;;;;5045934;28;20094;-63
2023/07/30 08:39:56;;;;;;;10.07;2.15;;;17.30;99.90;;;;;;5046548;28;20474;-64
2023/07/30 08:42:25;;;;;;;8.98;1.70;;;17.10;99.90;;;;;;5061710;28;20040;-64
2023/07/30 08:44:50;;;;;;;9.55;2.00;;;17.00;99.90;;;;;;5055378;28;20041;-62
2023/07/30 08:47:16;;;;;;;12.05;2.38;;;16.80;99.90;;;;;;5063174;28;20562;-62
2023/07/30 08:49:42;;;;;;;11.35;2.75;;;16.80;99.90;;;;;;5026532;28;20033;-62
2023/07/30 08:52:09;;;;;;;13.30;2.17;;;16.70;99.90;;;;;;5036920;28;20455;-63
2023/07/30 08:54:37;;;;;;;11.32;2.45;;;16.70;99.90;;;;;;5028916;28;20045;-62
2023/07/30 08:57:04;;;;;;;10.30;2.13;;;16.70;99.90;;;;;;5059174;28;20051;-64
2023/07/30 08:59:35;;;;;;;12.95;2.20;;;16.70;99.90;;;;;;5046820;28;20090;-63
2023/07/30 09:02:01;;;;;;;9.60;2.80;;;16.70;99.90;;;;;;5042387;28;20085;-63
2023/07/30 09:04:33;;;;;;;12.35;2.47;;;16.70;99.90;;;;;;5042418;28;20072;-64
2023/07/30 09:07:00;;;;;;;12.55;2.72;;;16.60;99.90;;;;;;5042177;28;20047;-63
2023/07/30 09:09:25;;;;;;;14.25;2.20;;;16.70;99.90;;;;;;5017756;28;20045;-65
2023/07/30 09:11:55;;;;;;;12.60;2.70;;;16.70;99.90;;;;;;5043735;28;20051;-63
2023/07/30 09:14:21;;;;;;;10.27;2.40;;;16.80;99.90;;;;;;5024400;28;20489;-63
2023/07/30 09:16:47;;;;;;;11.65;2.25;;;16.90;99.90;;;;;;5036638;28;20426;-62
2023/07/30 09:19:19;;;;;;;11.95;2.33;;;17.00;99.90;;;;;;5025120;28;20131;-64
2023/07/30 09:21:47;;;;;;;20.55;3.38;;;17.10;99.90;;;;;;5024837;28;20052;-63
2023/07/30 09:24:21;;;;;;;10.57;2.42;;;17.30;99.90;;;;;;5043722;28;20044;-62
2023/07/30 09:26:47;;;;;;;13.18;2.70;;;17.40;99.90;;;;;;5043479;28;20561;-62
2023/07/30 09:29:13;;;;;;;8.40;2.10;;;17.50;99.90;;;;;;5045527;28;20033;-62
2023/07/30 09:31:56;;;;;;;16.02;3.38;;;17.50;99.90;;;;;;5043496;28;20063;-61
2023/07/30 09:34:23;;;;;;;13.35;2.70;;;17.50;99.90;;;;;;5025907;28;20048;-63
2023/07/30 09:36:54;;;;;;;11.23;3.10;;;17.50;99.90;;;;;;5032822;28;20703;-64
2023/07/30 09:39:25;;;;;;;14.00;3.47;;;17.50;99.90;;;;;;5043154;28;20076;-71
2023/07/30 09:41:52;;;;;;;15.18;3.03;;;17.40;99.90;;;;;;5023177;28;20043;-67
2023/07/30 09:44:20;;;;;;;14.00;3.17;;;17.20;99.90;;;;;;5037141;28;20075;-64
2023/07/30 09:46:50;;;;;;;15.05;3.10;;;17.00;99.90;;;;;;5020633;28;20142;-61
2023/07/30 09:49:17;;;;;;;15.32;2.55;;;16.80;99.90;;;;;;5041074;28;20068;-62
2023/07/30 09:51:42;;;;;;;11.02;2.30;;;16.70;99.90;;;;;;5040088;28;20053;-61
2023/07/30 09:54:11;;;;;;;16.15;2.47;;;16.50;99.90;;;;;;5038273;28;20048;-65
2023/07/30 09:56:38;;;;;;;9.20;1.90;;;16.40;99.90;;;;;;5041032;28;20133;-63
2023/07/30 09:59:08;;;;;;;10.23;2.08;;;16.40;99.90;;;;;;5043698;28;20471;-65
2023/07/30 10:01:53;;;;;;;9.90;2.00;;;16.40;99.90;;;;;;5041691;28;20124;-65
2023/07/30 10:04:19;;;;;;;;;;;16.40;99.90;;;;;;5047508;28;20064;-64
2023/07/30 10:06:59;;;;;;;9.20;2.10;;;16.30;99.90;;;;;;5064144;28;19920;-64
2023/07/30 10:09:30;;;;;;;11.30;2.38;;;16.30;99.90;;;;;;5056109;28;20115;-63
2023/07/30 10:11:57;;;;;;;11.07;2.15;;;16.30;99.90;;;;;;5045033;28;20048;-63
2023/07/30 10:14:24;;;;;;;8.20;2.20;;;16.30;99.90;;;;;;5057673;28;20050;-65
2023/07/30 10:16:55;;;;;;;11.20;2.53;;;16.30;99.90;;;;;;5051383;28;20563;-65
2023/07/30 10:19:31;;;;;;;11.48;2.30;;;16.30;99.90;;;;;;5044931;28;20044;-63
2023/07/30 10:22:12;;;;;;;9.95;2.00;;;16.30;99.90;;;;;;5036755;28;20043;-62
2023/07/30 10:24:39;;;;;;;6.90;1.75;;;16.30;99.90;;;;;;5045747;28;20399;-64
2023/07/30 10:27:09;;;;;;;8.25;1.90;;;16.40;99.90;;;;;;5044551;28;20048;-63
2023/07/30 10:29:36;;;;;;;6.90;1.55;;;16.40;99.90;;;;;;5064793;28;20044;-63
2023/07/30 10:32:02;;;;;;;6.80;1.60;;;16.40;99.90;;;;;;5030819;28;20087;-64
2023/07/30 10:34:48;;;;;;;7.65;1.90;;;16.50;99.90;;;;;;5044331;28;20048;-64
2023/07/30 10:37:21;;;;;;;9.50;1.90;;;16.60;99.90;;;;;;5056842;28;20075;-64
2023/07/30 10:39:50;;;;;;;9.23;1.70;;;16.60;99.90;;;;;;5044791;28;20492;-64
2023/07/30 10:42:18;;;;;;;9.15;1.88;;;16.80;99.90;;;;;;5045103;28;20461;-63
2023/07/30 10:44:45;;;;;;;7.85;1.88;;;17.00;99.90;;;;;;5063756;28;20047;-63
2023/07/30 10:47:11;;;;;;;10.57;2.10;;;17.10;99.90;;;;;;5062509;28;20040;-65
2023/07/30 10:49:43;;;;;;;10.82;2.13;;;17.30;99.90;;;;;;5064131;28;20059;-63
2023/07/30 10:52:09;;;;;;;11.23;2.10;;;17.30;99.90;;;;;;5056204;28;20175;-62
2023/07/30 10:54:35;;;;;;;8.10;2.13;;;17.50;99.90;;;;;;5042796;28;20123;-65
2023/07/30 10:57:02;;;;;;;9.23;2.40;;;17.70;99.90;;;;;;5053592;28;20040;-63
2023/07/30 10:59:36;;;;;;;10.05;2.50;;;17.90;99.90;;;;;;5045737;28;20052;-68
2023/07/30 11:02:02;;;;;;;8.55;1.63;;;17.90;99.90;;;;;;5025397;28;20048;-63
2023/07/30 11:04:28;;;;;;;11.75;2.00;;;17.90;99.90;;;;;;5043119;28;20101;-64
2023/07/30 11:06:53;;;;;;;12.20;2.20;;;17.90;99.90;;;;;;5062596;28;20127;-64
2023/07/30 11:09:24;;;;;;;13.85;2.38;;;17.80;99.90;;;;;;5047868;28;20036;-65
2023/07/30 11:11:51;;;;;;;9.15;2.17;;;17.70;99.90;;;;;;5046949;28;20383;-66
2023/07/30 11:14:19;;;;;;;8.23;1.83;;;17.70;99.90;;;;;;5030040;28;20113;-63
2023/07/30 11:16:59;;;;;;;12.52;2.65;;;17.80;99.90;;;;;;5045965;28;20052;-64
2023/07/30 11:19:26;;;;;;;9.32;2.13;;;18.00;99.90;;;;;;5045466;28;20055;-62
2023/07/30 11:21:56;;;;;;;9.25;2.08;;;18.20;99.90;;;;;;5058356;28;20037;-62
2023/07/30 11:24:24;;;;;;;8.68;2.30;;;18.50;99.90;;;;;;5056482;28;20451;-61
2023/07/30 11:27:00;;;;;;;11.50;2.55;;;18.70;99.90;;;;;;5049318;28;20048;-63
2023/07/30 11:29:26;;;;;;;9.30;2.38;;;19.00;99.90;;;;;;5052305;28;20524;-67
2023/07/30 11:31:56;;;;;;;13.43;2.35;;;19.20;99.90;;;;;;5039460;28;20091;-62
2023/07/30 11:34:22;;;;;;;11.23;2.20;;;19.40;99.90;;;;;;5024553;28;20045;-63
2023/07/30 11:36:49;;;;;;;11.98;2.40;;;19.60;99.90;;;;;;5044179;28;20602;-67
2023/07/30 11:39:15;;;;;;;12.48;2.80;;;19.70;99.90;;;;;;5035977;28;20040;-65
2023/07/30 11:41:41;;;;;;;16.80;2.38;;;19.90;99.90;;;;;;5060364;28;20067;-67
2023/07/30 11:44:07;;;;;;;10.13;2.42;;;19.90;99.90;;;;;;5048795;28;20124;-63
2023/07/30 11:46:36;;;;;;;13.88;2.30;;;19.90;99.90;;;;;;5066495;28;20870;-64
2023/07/30 11:49:21;;;;;;;14.15;2.58;;;20.00;99.90;;;;;;5042438;28;20530;-63
2023/07/30 11:51:47;;;;;;;11.30;2.33;;;20.20;99.90;;;;;;5031473;28;20507;-65
2023/07/30 11:54:22;;;;;;;9.98;1.77;;;20.30;99.90;;;;;;5049163;28;20091;-68
2023/07/30 11:56:54;;;;;;;11.27;1.85;;;20.20;99.90;;;;;;5044477;28;20048;-65
2023/07/30 11:59:21;;;;;;;8.63;1.80;;;20.00;99.90;;;;;;5048426;28;20116;-67
2023/07/30 12:01:47;;;;;;;12.15;2.53;;;19.80;99.90;;;;;;5043469;28;20571;-66
2023/07/30 12:04:13;;;;;;;9.07;1.92;;;19.60;99.90;;;;;;5029387;28;20052;-69
2023/07/30 12:06:47;;;;;;;10.90;2.10;;;19.50;99.90;;;;;;5037284;28;20040;-64
2023/07/30 12:09:14;;;;;;;11.93;2.15;;;19.40;99.90;;;;;;5048499;28;20048;-68
2023/07/30 12:11:50;;;;;;;11.57;1.92;;;19.30;99.90;;;;;;5029580;28;20045;-63
2023/07/30 12:14:16;;;;;;;12.57;2.33;;;19.40;99.90;;;;;;5048823;28;20094;-65
2023/07/30 12:16:42;;;;;;;15.40;2.10;;;19.60;99.90;;;;;;5048648;28;20132;-69
2023/07/30 12:19:08;;;;;;;11.10;2.72;;;19.80;99.90;;;;;;5024146;28;20172;-65
2023/07/30 12:21:33;;;;;;;9.10;1.90;;;19.80;99.90;;;;;;5043140;28;20051;-64
2023/07/30 12:23:59;;;;;;;10.23;2.15;;;19.80;99.90;;;;;;5024328;28;20045;-64
2023/07/30 12:26:25;;;;;;;11.68;2.10;;;19.80;99.90;;;;;;5008654;28;20063;-64
2023/07/30 12:28:50;;;;;;;10.63;2.28;;;19.60;99.90;;;;;;5017404;28;20036;-64
2023/07/30 12:31:16;;;;;;;10.48;2.03;;;19.40;99.90;;;;;;5066412;28;20041;-66
2023/07/30 12:33:42;;;;;;;10.55;1.83;;;19.00;99.90;;;;;;5025179;28;20557;-66
2023/07/30 12:36:07;;;;;;;14.02;2.50;;;18.70;99.90;;;;;;5042970;28;20037;-65